東京/羽田 の空港の天気 - METARとTAF

東京国際空港 ( RJTT / HND ) - 東京都大田区
飛行場実況気象(Metar)
観測時間01/18 10:30 JST (01/18 01:30 UTC)
風向・風速北北東 10m/s
視程5000m
天気現象弱い雨 弱い雪 もや
少しの雲 雲底高度 210m
全天の8割程度の雲 雲底高度 300m
全天の8割程度の雲 雲底高度 460m
気温3℃
湿度93%
気圧1013hPa
METARRJTT 180130Z 02019KT 5000 -RASN BR FEW007 BKN010 BKN015 03/02 Q1013 TEMPO 4000 -RASN BR FEW005 BKN008 RMK 1ST007 5SC010 7SC015 A2994
過去の天気等 Google飛行場航空写真 Wunderground天気予報

過去48時間のMETAR

飛行場予報(TAF)
発表時間: 1/18 08:05 JST (1/17 23:05 UTC)
予報対象時間: 18日9時 JST ~ 19日15時 JST
風向・風速北 10m/s
視程10km以上
少しの雲 雲底高度 610m
全天の4割程度の雲 雲底高度 1220m
19日6時 JST ~ 19日9時 JST に徐々に
風向・風速北北東 4m/s
19日9時 JST ~ 19日12時 JST に徐々に
風向・風速東 3m/s
TAF RJTT 172305Z 1800/1906 36020KT 9999 FEW020 SCT040
BECMG 1821/1900 02008KT
BECMG 1900/1903 10005KT
日本の空港のMETAR・TAFへのリンク

RJTT 東京国際空港
RJAA 新東京国際空港
RJBB 関西国際空港
RJOO 大阪空港
RJGG 中部国際空港
RJCC 新千歳空港
RJFF 福岡空港
ROAH 那覇空港


RJEC 旭川空港
RJCH 函館空港
RJCK 釧路空港
RJCM 女満別空港
RJCB 帯広空港
RJSA 青森空港
RJSS 仙台空港
RJSK 秋田空港
RJSF 福島空港
RJAH 茨城空港
RJSN 新潟空港
RJNT 富山空港
RJNK 小松飛行場
RJNS 静岡空港
RJOH 美保飛行場
RJOC 出雲空港
RJOB 岡山空港
RJOA 広島空港
RJOI 岩国飛行場
RJOT 高松空港
RJOM 松山空港
RJOK 高知空港
RJFR 北九州空港
RJFT 熊本空港
RJFU 長崎空港
RJFS 佐賀空港
RJFO 大分空港
RJFM 宮崎空港
RJFK 鹿児島空港
ROIG 石垣島空港
RJTY 横田飛行場
ROTM 普天間飛行場
RODN 嘉手納飛行場